createdAt,value
2018-10-03T00:03:03.326Z,76.9
2018-10-03T00:08:05.723Z,76.5
2018-10-03T00:13:08.230Z,75.8
2018-10-03T00:18:10.671Z,75.2
2018-10-03T00:23:13.075Z,75.3
2018-10-03T00:28:15.600Z,75.3
2018-10-03T00:33:18.073Z,75.2
2018-10-03T00:38:20.377Z,75.2
2018-10-03T00:43:22.814Z,74.7
2018-10-03T00:48:25.248Z,74
2018-10-03T00:53:27.705Z,72.8
2018-10-03T00:58:30.123Z,72.3
2018-10-03T01:03:32.578Z,71
2018-10-03T01:08:35.088Z,70.6
2018-10-03T01:13:37.483Z,71.1
2018-10-03T01:18:39.910Z,71.6
2018-10-03T01:23:42.352Z,71.8
2018-10-03T01:28:44.901Z,71.9
2018-10-03T01:33:47.221Z,71.7
2018-10-03T01:38:49.639Z,71.9
2018-10-03T01:43:52.105Z,71.7
2018-10-03T01:48:54.563Z,71.5
2018-10-03T01:53:56.970Z,71
2018-10-03T01:58:59.448Z,71
2018-10-03T02:04:01.906Z,71
2018-10-03T02:09:04.302Z,71.2
2018-10-03T02:14:06.793Z,71.1
2018-10-03T02:19:09.162Z,71.1
2018-10-03T02:24:11.592Z,71
2018-10-03T02:29:14.133Z,70.2
2018-10-03T02:34:16.518Z,70.1
2018-10-03T02:39:18.925Z,69.2
2018-10-03T02:44:21.365Z,69.1
2018-10-03T02:49:23.794Z,69
2018-10-03T02:54:26.228Z,68.7
2018-10-03T02:59:28.799Z,68
2018-10-03T03:04:31.126Z,68
2018-10-03T03:09:33.583Z,67.9
2018-10-03T03:14:36.082Z,68
2018-10-03T03:19:38.491Z,68.1
2018-10-03T03:24:40.873Z,68.2
2018-10-03T03:29:43.330Z,68.1
2018-10-03T03:34:45.757Z,67.9
2018-10-03T03:39:48.211Z,67.8
2018-10-03T03:44:50.765Z,68.3
2018-10-03T03:49:53.132Z,69.2
2018-10-03T03:54:55.572Z,70.7
2018-10-03T03:59:57.965Z,71.4
2018-10-03T04:05:00.417Z,72
2018-10-03T04:10:02.988Z,72.2
2018-10-03T04:15:05.307Z,71.5
2018-10-03T04:20:12.808Z,71
2018-10-03T04:25:10.260Z,70.1
2018-10-03T04:30:17.742Z,70
2018-10-03T04:35:15.088Z,69.9
2018-10-03T04:40:17.477Z,69.7
2018-10-03T04:45:19.947Z,69.5
2018-10-03T04:50:22.360Z,68.8
2018-10-03T04:55:25.071Z,68.3
2018-10-03T05:00:27.250Z,67.7
2018-10-03T05:05:29.685Z,65.7
2018-10-03T05:10:32.104Z,65.1
2018-10-03T05:15:34.575Z,63.6
2018-10-03T05:20:36.995Z,61.7
2018-10-03T05:25:39.433Z,60.6
2018-10-03T05:30:41.880Z,58.8
2018-10-03T05:35:44.324Z,58.3
2018-10-03T05:40:46.773Z,57.9
2018-10-03T05:45:49.225Z,56.9
2018-10-03T05:50:51.641Z,56.2
2018-10-03T06:00:56.522Z,55
2018-10-03T06:05:58.979Z,54.4
2018-10-03T06:11:01.406Z,54.4
2018-10-03T06:16:03.827Z,54
2018-10-03T06:21:06.278Z,53.6
2018-10-03T06:26:08.733Z,53.8
2018-10-03T06:31:11.156Z,53.3
2018-10-03T06:36:13.634Z,52.5
2018-10-03T06:41:16.043Z,50.9
2018-10-03T06:46:18.475Z,50.9
2018-10-03T06:51:20.916Z,50.8
2018-10-03T06:56:23.365Z,50.8
2018-10-03T07:01:25.885Z,51.2
2018-10-03T07:06:28.272Z,51.3
2018-10-03T07:11:30.681Z,51.8
2018-10-03T07:16:33.118Z,52.2
2018-10-03T07:21:35.611Z,52.2
2018-10-03T07:26:38.003Z,52.7
2018-10-03T07:31:40.455Z,52.3
2018-10-03T07:36:42.945Z,52.5
2018-10-03T07:41:45.358Z,52.9
2018-10-03T07:46:47.744Z,53.3
2018-10-03T07:51:50.238Z,53.5
2018-10-03T07:56:52.633Z,53.2
2018-10-03T08:01:55.078Z,52.5
2018-10-03T08:06:57.524Z,52.1
2018-10-03T08:11:59.962Z,52.1
2018-10-03T08:17:02.423Z,52.3
2018-10-03T08:22:04.871Z,52.7
2018-10-03T08:27:07.298Z,52.2
2018-10-03T08:32:09.746Z,52.2
2018-10-03T08:37:12.155Z,52
2018-10-03T08:42:14.891Z,51.6
2018-10-03T08:47:17.042Z,51.1
2018-10-03T08:52:19.490Z,50.4
2018-10-03T08:57:21.928Z,49.8
2018-10-03T09:02:24.422Z,50
2018-10-03T09:07:26.814Z,50.5
2018-10-03T09:12:29.251Z,50.3
2018-10-03T09:17:31.706Z,50.2
2018-10-03T09:22:34.198Z,50.8
2018-10-03T09:27:36.574Z,51.3
2018-10-03T09:32:39.028Z,53.3
2018-10-03T09:37:41.489Z,53.5
2018-10-03T09:42:43.935Z,52.7
2018-10-03T09:47:46.350Z,53.6
2018-10-03T09:52:48.799Z,52.7
2018-10-03T09:57:51.296Z,49.7
2018-10-03T10:02:53.671Z,49.5
2018-10-03T10:07:56.112Z,49.6
2018-10-03T10:12:58.596Z,50.3
2018-10-03T10:18:01.049Z,49.4
2018-10-03T10:23:03.452Z,48.3
2018-10-03T10:28:05.957Z,47.5
2018-10-03T10:33:08.475Z,47.6
2018-10-03T10:38:10.910Z,48.3
2018-10-03T10:43:13.206Z,50.5
2018-10-03T10:48:15.707Z,51.3
2018-10-03T10:53:18.096Z,50.4
2018-10-03T10:58:20.496Z,50.7
2018-10-03T11:03:22.952Z,48.1
2018-10-03T11:08:25.405Z,46.2
2018-10-03T11:13:27.861Z,45.9
2018-10-03T11:18:30.308Z,46
2018-10-03T11:23:32.749Z,46.9
2018-10-03T11:28:35.168Z,46.8
2018-10-03T11:33:37.625Z,48
2018-10-03T11:38:40.147Z,47.2
2018-10-03T11:43:42.493Z,47.2
2018-10-03T11:48:44.951Z,46.6
2018-10-03T11:53:47.394Z,46.7
2018-10-03T11:58:49.781Z,45.5
2018-10-03T12:03:52.345Z,44.9
2018-10-03T12:08:54.663Z,42
2018-10-03T12:13:57.134Z,39.7
2018-10-03T12:18:59.566Z,39.9
2018-10-03T12:24:02.016Z,38.6
2018-10-03T12:29:04.431Z,37.3
2018-10-03T12:34:06.868Z,37
2018-10-03T12:39:09.348Z,36.6
2018-10-03T12:44:11.754Z,36.5
2018-10-03T12:49:14.216Z,35.9
2018-10-03T12:54:16.682Z,35.2
2018-10-03T12:59:19.077Z,35.4
2018-10-03T13:04:21.550Z,35.7
2018-10-03T13:09:23.989Z,37
2018-10-03T13:14:26.418Z,37
2018-10-03T13:19:28.941Z,35.1
2018-10-03T13:24:31.400Z,34.9
2018-10-03T13:29:33.743Z,35.6
2018-10-03T13:34:36.219Z,35.5
2018-10-03T13:39:38.675Z,36
2018-10-03T13:44:41.044Z,34.9
2018-10-03T13:49:43.531Z,35.5
2018-10-03T13:54:45.922Z,37
2018-10-03T13:59:48.443Z,37.9
2018-10-03T14:04:50.863Z,37.1
2018-10-03T14:09:53.296Z,35.1
2018-10-03T14:14:55.701Z,34
2018-10-03T14:19:58.126Z,35.2
2018-10-03T14:25:00.575Z,35.3
2018-10-03T14:30:03.075Z,34.7
2018-10-03T14:35:05.560Z,33.5
2018-10-03T14:40:07.919Z,33.8
2018-10-03T14:45:10.367Z,33.6
2018-10-03T14:50:12.825Z,31.3
2018-10-03T14:55:15.199Z,32.1
2018-10-03T15:00:17.675Z,34.1
2018-10-03T15:05:20.118Z,35.9
2018-10-03T15:10:22.545Z,37.2
2018-10-03T15:15:25.017Z,37.7
2018-10-03T15:20:27.482Z,38.1
2018-10-03T15:25:29.870Z,39
2018-10-03T15:30:32.284Z,39.5
2018-10-03T15:35:35.391Z,40.3
2018-10-03T15:40:37.185Z,40.4
2018-10-03T15:45:39.611Z,40.7
2018-10-03T15:50:42.058Z,41.2
2018-10-03T15:55:44.507Z,41.4
2018-10-03T16:00:47.057Z,41.4
2018-10-03T16:05:49.453Z,41.7
2018-10-03T16:10:51.818Z,42
2018-10-03T16:15:54.290Z,42.4
2018-10-03T16:20:56.714Z,43
2018-10-03T16:25:59.145Z,42.9
2018-10-03T16:36:04.032Z,43.5
2018-10-03T16:41:06.453Z,43.8
2018-10-03T16:46:08.909Z,44.2
2018-10-03T16:51:11.339Z,44.4
2018-10-03T16:56:13.873Z,44.7
2018-10-03T17:01:16.238Z,45
2018-10-03T17:06:18.802Z,44.9
2018-10-03T17:11:21.189Z,45
2018-10-03T17:16:23.649Z,45.3
2018-10-03T17:21:25.996Z,45.3
2018-10-03T17:26:28.449Z,45.5
2018-10-03T17:31:30.872Z,45.9
2018-10-03T17:36:33.331Z,46.1
2018-10-03T17:41:35.763Z,46.5
2018-10-03T17:46:38.234Z,46.7
2018-10-03T17:51:40.794Z,46.9
2018-10-03T17:56:43.066Z,47
2018-10-03T18:01:45.531Z,47.2
2018-10-03T18:06:47.949Z,47.3
2018-10-03T18:11:50.392Z,47.2
2018-10-03T18:16:52.871Z,47.3
2018-10-03T18:21:55.290Z,47.4
2018-10-03T18:26:57.710Z,47.4
2018-10-03T18:37:03.546Z,47.4
2018-10-03T18:42:05.042Z,47.5
2018-10-03T18:47:07.458Z,47.6
2018-10-03T18:52:09.978Z,47.7
2018-10-03T18:57:12.365Z,47.7
2018-10-03T19:02:14.806Z,47.7
2018-10-03T19:07:17.248Z,47.7
2018-10-03T19:12:19.930Z,47.7
2018-10-03T19:17:22.105Z,47.7
2018-10-03T19:22:24.552Z,47.6
2018-10-03T19:27:26.992Z,47.6
2018-10-03T19:32:29.453Z,47.6
2018-10-03T19:37:31.895Z,47.6
2018-10-03T19:42:34.339Z,47.7
2018-10-03T19:47:36.863Z,48.7
2018-10-03T19:52:39.329Z,48.7
2018-10-03T19:57:41.651Z,48.8
2018-10-03T20:02:44.079Z,48.8
2018-10-03T20:07:46.657Z,48.9
2018-10-03T20:12:49.005Z,48.9
2018-10-03T20:17:51.421Z,48.9
2018-10-03T20:22:53.936Z,48.8
2018-10-03T20:27:56.307Z,48.8
2018-10-03T20:32:58.751Z,48.9
2018-10-03T20:38:01.267Z,49
2018-10-03T20:43:03.740Z,49.1
2018-10-03T20:48:06.142Z,49.4
2018-10-03T20:53:08.682Z,49.5
2018-10-03T20:58:10.951Z,49.7
2018-10-03T21:03:13.394Z,49.8
2018-10-03T21:08:15.848Z,50
2018-10-03T21:13:18.274Z,50.1
2018-10-03T21:18:20.746Z,50.2
2018-10-03T21:23:23.187Z,50.3
2018-10-03T21:28:25.593Z,50.4
2018-10-03T21:33:28.105Z,50.4
2018-10-03T21:38:30.501Z,50.4
2018-10-03T21:43:32.972Z,50.4
2018-10-03T21:48:35.352Z,50.4
2018-10-03T21:53:37.874Z,50.6
2018-10-03T21:58:40.237Z,50.7
2018-10-03T22:03:42.697Z,50.8
2018-10-03T22:08:45.176Z,51
2018-10-03T22:13:47.534Z,51
2018-10-03T22:18:50.017Z,51
2018-10-03T22:23:52.467Z,51.1
2018-10-03T22:28:54.916Z,51.1
2018-10-03T22:33:57.316Z,51.2
2018-10-03T22:38:59.795Z,51.3
2018-10-03T22:44:02.190Z,51.3
2018-10-03T22:49:04.642Z,51.3
2018-10-03T22:54:07.342Z,51.3
2018-10-03T22:59:09.532Z,51.4
2018-10-03T23:04:12.017Z,51.5
2018-10-03T23:09:14.428Z,51.5
2018-10-03T23:14:16.864Z,51.6
2018-10-03T23:19:19.276Z,51.5
2018-10-03T23:24:21.725Z,51.5
2018-10-03T23:29:24.161Z,51.5
2018-10-03T23:34:26.647Z,51.5
2018-10-03T23:39:29.044Z,51.5
2018-10-03T23:44:31.476Z,51.6
2018-10-03T23:49:33.935Z,51.7
2018-10-03T23:54:36.382Z,51.7
2018-10-03T23:59:38.851Z,51.7
